sensor_id;sensor_type;location;lat;lon;timestamp;temperature;humidity
61641;HTU21D;62201;49.966;8.342;2022-12-10T00:01:08;1.65;87.61
61641;HTU21D;62201;49.966;8.342;2022-12-10T00:03:34;1.61;87.59
61641;HTU21D;62201;49.966;8.342;2022-12-10T00:06:01;1.60;87.96
61641;HTU21D;62201;49.966;8.342;2022-12-10T00:08:27;1.60;87.93
61641;HTU21D;62201;49.966;8.342;2022-12-10T00:10:52;1.56;87.64
61641;HTU21D;62201;49.966;8.342;2022-12-10T00:13:17;1.51;87.73
61641;HTU21D;62201;49.966;8.342;2022-12-10T00:15:43;1.51;87.95
61641;HTU21D;62201;49.966;8.342;2022-12-10T00:18:08;1.48;87.80
61641;HTU21D;62201;49.966;8.342;2022-12-10T00:20:36;1.47;87.89
61641;HTU21D;62201;49.966;8.342;2022-12-10T00:23:01;1.47;87.84
61641;HTU21D;62201;49.966;8.342;2022-12-10T00:25:27;1.45;87.74
61641;HTU21D;62201;49.966;8.342;2022-12-10T00:27:52;1.43;87.88
61641;HTU21D;62201;49.966;8.342;2022-12-10T00:30:17;1.43;87.86
61641;HTU21D;62201;49.966;8.342;2022-12-10T00:32:43;1.42;87.73
61641;HTU21D;62201;49.966;8.342;2022-12-10T00:35:08;1.38;87.62
61641;HTU21D;62201;49.966;8.342;2022-12-10T00:37:34;1.35;87.75
61641;HTU21D;62201;49.966;8.342;2022-12-10T00:39:59;1.36;87.57
61641;HTU21D;62201;49.966;8.342;2022-12-10T00:42:24;1.34;87.58
61641;HTU21D;62201;49.966;8.342;2022-12-10T00:44:50;1.32;87.51
61641;HTU21D;62201;49.966;8.342;2022-12-10T00:47:15;1.29;87.67
61641;HTU21D;62201;49.966;8.342;2022-12-10T00:49:40;1.28;87.73
61641;HTU21D;62201;49.966;8.342;2022-12-10T00:52:06;1.27;87.68
61641;HTU21D;62201;49.966;8.342;2022-12-10T00:54:31;1.27;87.69
61641;HTU21D;62201;49.966;8.342;2022-12-10T00:56:57;1.25;87.65
61641;HTU21D;62201;49.966;8.342;2022-12-10T00:59:22;1.24;87.78
61641;HTU21D;62201;49.966;8.342;2022-12-10T01:01:47;1.21;87.58
61641;HTU21D;62201;49.966;8.342;2022-12-10T01:04:15;1.21;87.77
61641;HTU21D;62201;49.966;8.342;2022-12-10T01:06:47;1.22;87.67
61641;HTU21D;62201;49.966;8.342;2022-12-10T01:09:15;1.21;87.64
61641;HTU21D;62201;49.966;8.342;2022-12-10T01:11:42;1.20;87.75
61641;HTU21D;62201;49.966;8.342;2022-12-10T01:14:11;1.20;87.81
61641;HTU21D;62201;49.966;8.342;2022-12-10T01:16:36;1.19;87.98
61641;HTU21D;62201;49.966;8.342;2022-12-10T01:19:02;1.17;87.97
61641;HTU21D;62201;49.966;8.342;2022-12-10T01:21:28;1.18;87.96
61641;HTU21D;62201;49.966;8.342;2022-12-10T01:23:55;1.14;88.04
61641;HTU21D;62201;49.966;8.342;2022-12-10T01:26:26;1.14;88.03
61641;HTU21D;62201;49.966;8.342;2022-12-10T01:28:53;1.13;88.14
61641;HTU21D;62201;49.966;8.342;2022-12-10T01:31:22;1.12;88.38
61641;HTU21D;62201;49.966;8.342;2022-12-10T01:33:47;1.13;88.61
61641;HTU21D;62201;49.966;8.342;2022-12-10T01:36:16;1.09;88.35
61641;HTU21D;62201;49.966;8.342;2022-12-10T01:38:42;1.09;88.41
61641;HTU21D;62201;49.966;8.342;2022-12-10T01:41:14;1.09;88.38
61641;HTU21D;62201;49.966;8.342;2022-12-10T01:46:19;1.05;88.45
61641;HTU21D;62201;49.966;8.342;2022-12-10T01:48:45;1.04;88.56
61641;HTU21D;62201;49.966;8.342;2022-12-10T01:51:12;1.01;88.47
61641;HTU21D;62201;49.966;8.342;2022-12-10T01:53:37;1.01;88.64
61641;HTU21D;62201;49.966;8.342;2022-12-10T01:56:03;1.02;88.54
61641;HTU21D;62201;49.966;8.342;2022-12-10T01:58:29;0.99;88.34
61641;HTU21D;62201;49.966;8.342;2022-12-10T02:01:05;0.98;88.45
61641;HTU21D;62201;49.966;8.342;2022-12-10T02:06:19;0.96;88.39
61641;HTU21D;62201;49.966;8.342;2022-12-10T02:09:02;0.95;88.06
61641;HTU21D;62201;49.966;8.342;2022-12-10T02:11:33;0.93;88.47
61641;HTU21D;62201;49.966;8.342;2022-12-10T02:14:08;0.91;88.62
61641;HTU21D;62201;49.966;8.342;2022-12-10T02:16:53;0.90;88.47
61641;HTU21D;62201;49.966;8.342;2022-12-10T02:19:58;0.88;88.52
61641;HTU21D;62201;49.966;8.342;2022-12-10T02:22:26;0.86;88.38
61641;HTU21D;62201;49.966;8.342;2022-12-10T02:24:54;0.84;88.32
61641;HTU21D;62201;49.966;8.342;2022-12-10T02:27:29;0.84;88.35
61641;HTU21D;62201;49.966;8.342;2022-12-10T02:29:57;0.80;88.21
61641;HTU21D;62201;49.966;8.342;2022-12-10T02:32:32;0.79;88.31
61641;HTU21D;62201;49.966;8.342;2022-12-10T02:35:00;0.77;88.50
61641;HTU21D;62201;49.966;8.342;2022-12-10T02:37:34;0.76;88.30
61641;HTU21D;62201;49.966;8.342;2022-12-10T02:40:05;0.75;88.32
61641;HTU21D;62201;49.966;8.342;2022-12-10T02:42:34;0.74;88.36
61641;HTU21D;62201;49.966;8.342;2022-12-10T02:45:00;0.74;88.26
61641;HTU21D;62201;49.966;8.342;2022-12-10T02:47:26;0.73;87.92
61641;HTU21D;62201;49.966;8.342;2022-12-10T02:49:53;0.71;87.94
61641;HTU21D;62201;49.966;8.342;2022-12-10T02:52:22;0.68;87.83
61641;HTU21D;62201;49.966;8.342;2022-12-10T02:54:49;0.67;87.96
61641;HTU21D;62201;49.966;8.342;2022-12-10T03:00:19;0.66;87.85
61641;HTU21D;62201;49.966;8.342;2022-12-10T03:08:23;0.60;87.99
61641;HTU21D;62201;49.966;8.342;2022-12-10T03:13:27;0.58;88.15
61641;HTU21D;62201;49.966;8.342;2022-12-10T03:15:54;0.55;88.11
61641;HTU21D;62201;49.966;8.342;2022-12-10T03:18:24;0.54;88.22
61641;HTU21D;62201;49.966;8.342;2022-12-10T03:20:51;0.54;88.08
61641;HTU21D;62201;49.966;8.342;2022-12-10T03:23:18;0.53;88.17
61641;HTU21D;62201;49.966;8.342;2022-12-10T03:25:44;0.51;88.22
61641;HTU21D;62201;49.966;8.342;2022-12-10T03:28:12;0.51;88.45
61641;HTU21D;62201;49.966;8.342;2022-12-10T03:30:39;0.48;88.15
61641;HTU21D;62201;49.966;8.342;2022-12-10T03:33:05;0.49;88.53
61641;HTU21D;62201;49.966;8.342;2022-12-10T03:35:31;0.49;88.19
61641;HTU21D;62201;49.966;8.342;2022-12-10T03:37:57;0.45;88.22
61641;HTU21D;62201;49.966;8.342;2022-12-10T03:40:24;0.45;88.35
61641;HTU21D;62201;49.966;8.342;2022-12-10T03:42:50;0.42;88.44
61641;HTU21D;62201;49.966;8.342;2022-12-10T03:45:15;0.39;88.35
61641;HTU21D;62201;49.966;8.342;2022-12-10T03:47:41;0.40;88.59
61641;HTU21D;62201;49.966;8.342;2022-12-10T03:50:07;0.38;88.50
61641;HTU21D;62201;49.966;8.342;2022-12-10T03:52:33;0.35;88.41
61641;HTU21D;62201;49.966;8.342;2022-12-10T03:54:58;0.32;88.44
61641;HTU21D;62201;49.966;8.342;2022-12-10T03:57:24;0.29;88.71
61641;HTU21D;62201;49.966;8.342;2022-12-10T03:59:49;0.28;88.74
61641;HTU21D;62201;49.966;8.342;2022-12-10T04:02:15;0.24;88.79
61641;HTU21D;62201;49.966;8.342;2022-12-10T04:04:40;0.21;88.94
61641;HTU21D;62201;49.966;8.342;2022-12-10T04:07:05;0.21;89.25
61641;HTU21D;62201;49.966;8.342;2022-12-10T04:09:31;0.20;89.27
61641;HTU21D;62201;49.966;8.342;2022-12-10T04:11:57;0.15;89.60
61641;HTU21D;62201;49.966;8.342;2022-12-10T04:14:23;0.12;89.75
61641;HTU21D;62201;49.966;8.342;2022-12-10T04:17:07;0.08;89.89
61641;HTU21D;62201;49.966;8.342;2022-12-10T04:19:33;0.05;89.86
61641;HTU21D;62201;49.966;8.342;2022-12-10T04:21:58;0.03;89.94
61641;HTU21D;62201;49.966;8.342;2022-12-10T04:24:42;0.01;90.02
61641;HTU21D;62201;49.966;8.342;2022-12-10T04:27:31;-0.01;90.08
61641;HTU21D;62201;49.966;8.342;2022-12-10T04:29:59;-0.03;90.41
61641;HTU21D;62201;49.966;8.342;2022-12-10T04:32:26;-0.05;90.51
61641;HTU21D;62201;49.966;8.342;2022-12-10T04:34:52;-0.07;90.77
61641;HTU21D;62201;49.966;8.342;2022-12-10T04:37:18;-0.10;90.85
61641;HTU21D;62201;49.966;8.342;2022-12-10T04:39:43;-0.12;91.28
61641;HTU21D;62201;49.966;8.342;2022-12-10T04:42:09;-0.16;91.05
61641;HTU21D;62201;49.966;8.342;2022-12-10T04:44:35;-0.15;90.98
61641;HTU21D;62201;49.966;8.342;2022-12-10T04:47:01;-0.15;90.95
61641;HTU21D;62201;49.966;8.342;2022-12-10T04:49:26;-0.14;90.79
61641;HTU21D;62201;49.966;8.342;2022-12-10T04:51:52;-0.16;90.79
61641;HTU21D;62201;49.966;8.342;2022-12-10T04:54:18;-0.16;90.93
61641;HTU21D;62201;49.966;8.342;2022-12-10T04:56:44;-0.19;91.08
61641;HTU21D;62201;49.966;8.342;2022-12-10T04:59:10;-0.19;91.04
61641;HTU21D;62201;49.966;8.342;2022-12-10T05:01:36;-0.23;91.15
61641;HTU21D;62201;49.966;8.342;2022-12-10T05:04:04;-0.23;90.79
61641;HTU21D;62201;49.966;8.342;2022-12-10T05:06:30;-0.25;90.86
61641;HTU21D;62201;49.966;8.342;2022-12-10T05:08:56;-0.24;90.98
61641;HTU21D;62201;49.966;8.342;2022-12-10T05:11:23;-0.27;91.06
61641;HTU21D;62201;49.966;8.342;2022-12-10T05:13:49;-0.29;91.12
61641;HTU21D;62201;49.966;8.342;2022-12-10T05:16:17;-0.31;91.11
61641;HTU21D;62201;49.966;8.342;2022-12-10T05:18:44;-0.35;91.16
61641;HTU21D;62201;49.966;8.342;2022-12-10T05:21:11;-0.36;91.27
61641;HTU21D;62201;49.966;8.342;2022-12-10T05:23:40;-0.39;91.44
61641;HTU21D;62201;49.966;8.342;2022-12-10T05:26:08;-0.44;91.78
61641;HTU21D;62201;49.966;8.342;2022-12-10T05:28:39;-0.49;91.85
61641;HTU21D;62201;49.966;8.342;2022-12-10T05:31:11;-0.52;92.26
61641;HTU21D;62201;49.966;8.342;2022-12-10T05:33:37;-0.51;92.13
61641;HTU21D;62201;49.966;8.342;2022-12-10T05:36:03;-0.56;92.28
61641;HTU21D;62201;49.966;8.342;2022-12-10T05:38:31;-0.59;92.44
61641;HTU21D;62201;49.966;8.342;2022-12-10T05:41:08;-0.61;92.64
61641;HTU21D;62201;49.966;8.342;2022-12-10T05:43:34;-0.62;92.63
61641;HTU21D;62201;49.966;8.342;2022-12-10T05:46:01;-0.65;92.74
61641;HTU21D;62201;49.966;8.342;2022-12-10T05:48:27;-0.67;92.69
61641;HTU21D;62201;49.966;8.342;2022-12-10T05:50:53;-0.71;92.72
61641;HTU21D;62201;49.966;8.342;2022-12-10T05:53:18;-0.71;92.58
61641;HTU21D;62201;49.966;8.342;2022-12-10T05:55:44;-0.72;92.66
61641;HTU21D;62201;49.966;8.342;2022-12-10T05:58:10;-0.73;92.39
61641;HTU21D;62201;49.966;8.342;2022-12-10T06:00:38;-0.76;92.49
61641;HTU21D;62201;49.966;8.342;2022-12-10T06:03:04;-0.77;92.66
61641;HTU21D;62201;49.966;8.342;2022-12-10T06:05:29;-0.77;92.68
61641;HTU21D;62201;49.966;8.342;2022-12-10T06:07:55;-0.76;92.63
61641;HTU21D;62201;49.966;8.342;2022-12-10T06:10:20;-0.75;92.56
61641;HTU21D;62201;49.966;8.342;2022-12-10T06:12:45;-0.75;92.49
61641;HTU21D;62201;49.966;8.342;2022-12-10T06:15:11;-0.80;92.80
61641;HTU21D;62201;49.966;8.342;2022-12-10T06:17:36;-0.84;92.92
61641;HTU21D;62201;49.966;8.342;2022-12-10T06:20:02;-0.86;93.18
61641;HTU21D;62201;49.966;8.342;2022-12-10T06:22:27;-0.89;93.26
61641;HTU21D;62201;49.966;8.342;2022-12-10T06:24:52;-0.89;93.43
61641;HTU21D;62201;49.966;8.342;2022-12-10T06:27:18;-0.86;93.17
61641;HTU21D;62201;49.966;8.342;2022-12-10T06:29:44;-0.83;92.95
61641;HTU21D;62201;49.966;8.342;2022-12-10T06:32:09;-0.79;92.77
61641;HTU21D;62201;49.966;8.342;2022-12-10T06:34:35;-0.80;92.76
61641;HTU21D;62201;49.966;8.342;2022-12-10T06:37:00;-0.76;92.50
61641;HTU21D;62201;49.966;8.342;2022-12-10T06:39:25;-0.80;92.34
61641;HTU21D;62201;49.966;8.342;2022-12-10T06:41:51;-0.77;92.32
61641;HTU21D;62201;49.966;8.342;2022-12-10T06:44:16;-0.76;92.19
61641;HTU21D;62201;49.966;8.342;2022-12-10T06:46:41;-0.76;92.00
61641;HTU21D;62201;49.966;8.342;2022-12-10T06:49:07;-0.77;91.98
61641;HTU21D;62201;49.966;8.342;2022-12-10T06:51:33;-0.76;92.11
61641;HTU21D;62201;49.966;8.342;2022-12-10T06:53:58;-0.74;92.08
61641;HTU21D;62201;49.966;8.342;2022-12-10T06:56:23;-0.71;92.07
61641;HTU21D;62201;49.966;8.342;2022-12-10T06:58:49;-0.70;91.98
61641;HTU21D;62201;49.966;8.342;2022-12-10T07:01:20;-0.66;92.01
61641;HTU21D;62201;49.966;8.342;2022-12-10T07:03:50;-0.66;91.89
61641;HTU21D;62201;49.966;8.342;2022-12-10T07:06:15;-0.68;92.37
61641;HTU21D;62201;49.966;8.342;2022-12-10T07:08:41;-0.64;92.47
61641;HTU21D;62201;49.966;8.342;2022-12-10T07:11:09;-0.67;92.43
61641;HTU21D;62201;49.966;8.342;2022-12-10T07:13:35;-0.67;92.61
61641;HTU21D;62201;49.966;8.342;2022-12-10T07:16:00;-0.65;92.80
61641;HTU21D;62201;49.966;8.342;2022-12-10T07:18:26;-0.60;92.97
61641;HTU21D;62201;49.966;8.342;2022-12-10T07:20:51;-0.60;92.73
61641;HTU21D;62201;49.966;8.342;2022-12-10T07:23:16;-0.67;92.80
61641;HTU21D;62201;49.966;8.342;2022-12-10T07:25:42;-0.72;93.20
61641;HTU21D;62201;49.966;8.342;2022-12-10T07:28:07;-0.75;93.74
61641;HTU21D;62201;49.966;8.342;2022-12-10T07:30:33;-0.70;94.14
61641;HTU21D;62201;49.966;8.342;2022-12-10T07:32:58;-0.56;94.14
61641;HTU21D;62201;49.966;8.342;2022-12-10T07:35:24;-0.42;93.28
61641;HTU21D;62201;49.966;8.342;2022-12-10T07:37:49;-0.34;93.08
61641;HTU21D;62201;49.966;8.342;2022-12-10T07:40:15;-0.28;92.88
61641;HTU21D;62201;49.966;8.342;2022-12-10T07:42:40;-0.21;92.68
61641;HTU21D;62201;49.966;8.342;2022-12-10T07:45:07;-0.17;92.61
61641;HTU21D;62201;49.966;8.342;2022-12-10T07:47:35;-0.11;92.34
61641;HTU21D;62201;49.966;8.342;2022-12-10T07:50:01;-0.05;92.32
61641;HTU21D;62201;49.966;8.342;2022-12-10T07:52:26;0.01;92.25
61641;HTU21D;62201;49.966;8.342;2022-12-10T07:54:52;0.04;92.19
61641;HTU21D;62201;49.966;8.342;2022-12-10T07:57:17;0.07;92.18
61641;HTU21D;62201;49.966;8.342;2022-12-10T07:59:42;0.12;92.14
61641;HTU21D;62201;49.966;8.342;2022-12-10T08:02:08;0.17;92.18
61641;HTU21D;62201;49.966;8.342;2022-12-10T08:04:34;0.20;92.10
61641;HTU21D;62201;49.966;8.342;2022-12-10T08:06:59;0.24;92.23
61641;HTU21D;62201;49.966;8.342;2022-12-10T08:09:25;0.32;92.16
61641;HTU21D;62201;49.966;8.342;2022-12-10T08:11:50;0.37;91.79
61641;HTU21D;62201;49.966;8.342;2022-12-10T08:14:17;0.40;91.37
61641;HTU21D;62201;49.966;8.342;2022-12-10T08:16:42;0.45;90.86
61641;HTU21D;62201;49.966;8.342;2022-12-10T08:19:08;0.48;91.40
61641;HTU21D;62201;49.966;8.342;2022-12-10T08:21:34;0.48;91.05
61641;HTU21D;62201;49.966;8.342;2022-12-10T08:24:00;0.50;91.27
61641;HTU21D;62201;49.966;8.342;2022-12-10T08:26:28;0.51;90.12
61641;HTU21D;62201;49.966;8.342;2022-12-10T08:28:54;0.51;89.74
61641;HTU21D;62201;49.966;8.342;2022-12-10T08:31:21;0.52;90.44
61641;HTU21D;62201;49.966;8.342;2022-12-10T08:34:16;0.57;89.32
61641;HTU21D;62201;49.966;8.342;2022-12-10T08:36:43;0.62;89.02
61641;HTU21D;62201;49.966;8.342;2022-12-10T08:39:32;0.65;88.76
61641;HTU21D;62201;49.966;8.342;2022-12-10T08:41:58;0.76;89.02
61641;HTU21D;62201;49.966;8.342;2022-12-10T08:44:24;0.79;87.89
61641;HTU21D;62201;49.966;8.342;2022-12-10T08:46:49;0.82;87.95
61641;HTU21D;62201;49.966;8.342;2022-12-10T08:49:15;0.82;87.49
61641;HTU21D;62201;49.966;8.342;2022-12-10T08:51:40;0.90;88.70
61641;HTU21D;62201;49.966;8.342;2022-12-10T08:54:06;1.02;88.71
61641;HTU21D;62201;49.966;8.342;2022-12-10T08:56:31;1.10;87.85
61641;HTU21D;62201;49.966;8.342;2022-12-10T08:58:56;1.20;88.02
61641;HTU21D;62201;49.966;8.342;2022-12-10T09:01:22;1.32;88.01
61641;HTU21D;62201;49.966;8.342;2022-12-10T09:03:47;1.35;86.32
61641;HTU21D;62201;49.966;8.342;2022-12-10T09:06:16;1.45;86.77
61641;HTU21D;62201;49.966;8.342;2022-12-10T09:08:42;1.55;86.95
61641;HTU21D;62201;49.966;8.342;2022-12-10T09:11:10;1.66;86.97
61641;HTU21D;62201;49.966;8.342;2022-12-10T09:13:35;1.68;86.54
61641;HTU21D;62201;49.966;8.342;2022-12-10T09:16:02;1.77;85.90
61641;HTU21D;62201;49.966;8.342;2022-12-10T09:18:27;1.76;84.51
61641;HTU21D;62201;49.966;8.342;2022-12-10T09:20:52;1.80;85.19
61641;HTU21D;62201;49.966;8.342;2022-12-10T09:23:18;1.82;84.87
61641;HTU21D;62201;49.966;8.342;2022-12-10T09:25:43;1.93;85.53
61641;HTU21D;62201;49.966;8.342;2022-12-10T09:28:09;1.98;85.38
61641;HTU21D;62201;49.966;8.342;2022-12-10T09:30:34;2.00;85.79
61641;HTU21D;62201;49.966;8.342;2022-12-10T09:32:59;2.02;86.12
61641;HTU21D;62201;49.966;8.342;2022-12-10T09:35:25;1.91;83.20
61641;HTU21D;62201;49.966;8.342;2022-12-10T09:37:50;1.84;82.68
61641;HTU21D;62201;49.966;8.342;2022-12-10T09:40:17;1.78;83.56
61641;HTU21D;62201;49.966;8.342;2022-12-10T09:45:59;1.78;82.89
61641;HTU21D;62201;49.966;8.342;2022-12-10T09:49:21;1.93;82.57
61641;HTU21D;62201;49.966;8.342;2022-12-10T09:51:29;2.05;81.32
61641;HTU21D;62201;49.966;8.342;2022-12-10T09:53:57;2.09;81.19
61641;HTU21D;62201;49.966;8.342;2022-12-10T09:56:31;2.10;81.18
61641;HTU21D;62201;49.966;8.342;2022-12-10T09:59:00;2.16;81.19
61641;HTU21D;62201;49.966;8.342;2022-12-10T10:01:28;2.25;81.25
61641;HTU21D;62201;49.966;8.342;2022-12-10T10:03:55;2.29;80.60
61641;HTU21D;62201;49.966;8.342;2022-12-10T10:06:21;2.51;79.27
61641;HTU21D;62201;49.966;8.342;2022-12-10T10:08:52;2.86;77.53
61641;HTU21D;62201;49.966;8.342;2022-12-10T10:11:19;3.15;76.34
61641;HTU21D;62201;49.966;8.342;2022-12-10T10:13:47;3.16;76.22
61641;HTU21D;62201;49.966;8.342;2022-12-10T10:16:25;3.14;75.84
61641;HTU21D;62201;49.966;8.342;2022-12-10T10:19:03;3.25;76.79
61641;HTU21D;62201;49.966;8.342;2022-12-10T10:21:36;3.06;75.66
61641;HTU21D;62201;49.966;8.342;2022-12-10T10:24:04;3.06;75.50
61641;HTU21D;62201;49.966;8.342;2022-12-10T10:26:30;3.21;75.18
61641;HTU21D;62201;49.966;8.342;2022-12-10T10:28:58;2.86;76.38
61641;HTU21D;62201;49.966;8.342;2022-12-10T10:31:28;2.82;77.08
61641;HTU21D;62201;49.966;8.342;2022-12-10T10:33:56;2.74;77.00
61641;HTU21D;62201;49.966;8.342;2022-12-10T10:36:24;2.59;77.14
61641;HTU21D;62201;49.966;8.342;2022-12-10T10:38:50;2.31;77.24
61641;HTU21D;62201;49.966;8.342;2022-12-10T10:41:15;2.26;77.97
61641;HTU21D;62201;49.966;8.342;2022-12-10T10:43:43;2.22;78.05
61641;HTU21D;62201;49.966;8.342;2022-12-10T10:46:22;2.11;78.14
61641;HTU21D;62201;49.966;8.342;2022-12-10T10:48:49;2.00;78.34
61641;HTU21D;62201;49.966;8.342;2022-12-10T10:51:21;1.94;78.77
61641;HTU21D;62201;49.966;8.342;2022-12-10T10:53:49;1.93;78.84
61641;HTU21D;62201;49.966;8.342;2022-12-10T10:56:24;1.92;79.97
61641;HTU21D;62201;49.966;8.342;2022-12-10T11:01:45;1.84;79.72
61641;HTU21D;62201;49.966;8.342;2022-12-10T11:04:13;1.83;79.78
61641;HTU21D;62201;49.966;8.342;2022-12-10T11:06:40;1.83;79.53
61641;HTU21D;62201;49.966;8.342;2022-12-10T11:09:05;1.85;79.40
61641;HTU21D;62201;49.966;8.342;2022-12-10T11:14:26;1.95;79.38
61641;HTU21D;62201;49.966;8.342;2022-12-10T11:20:20;2.31;77.30
61641;HTU21D;62201;49.966;8.342;2022-12-10T11:23:00;2.85;75.50
61641;HTU21D;62201;49.966;8.342;2022-12-10T11:25:52;3.18;74.34
61641;HTU21D;62201;49.966;8.342;2022-12-10T11:28:45;3.63;71.76
61641;HTU21D;62201;49.966;8.342;2022-12-10T11:31:38;3.84;70.37
61641;HTU21D;62201;49.966;8.342;2022-12-10T11:37:03;3.90;70.61
61641;HTU21D;62201;49.966;8.342;2022-12-10T11:46:01;4.45;67.59
61641;HTU21D;62201;49.966;8.342;2022-12-10T11:50:53;4.24;67.78
61641;HTU21D;62201;49.966;8.342;2022-12-10T11:53:38;4.03;68.47
61641;HTU21D;62201;49.966;8.342;2022-12-10T12:04:24;3.46;70.07
61641;HTU21D;62201;49.966;8.342;2022-12-10T12:09:59;3.58;70.16
61641;HTU21D;62201;49.966;8.342;2022-12-10T12:12:45;3.52;70.28
61641;HTU21D;62201;49.966;8.342;2022-12-10T12:15:21;3.41;70.76
61641;HTU21D;62201;49.966;8.342;2022-12-10T12:17:55;3.35;70.65
61641;HTU21D;62201;49.966;8.342;2022-12-10T12:20:30;3.26;71.13
61641;HTU21D;62201;49.966;8.342;2022-12-10T12:23:02;3.29;70.94
61641;HTU21D;62201;49.966;8.342;2022-12-10T12:25:36;3.39;70.45
61641;HTU21D;62201;49.966;8.342;2022-12-10T12:28:16;3.49;70.47
61641;HTU21D;62201;49.966;8.342;2022-12-10T12:30:46;3.70;70.09
61641;HTU21D;62201;49.966;8.342;2022-12-10T12:33:29;3.74;69.51
61641;HTU21D;62201;49.966;8.342;2022-12-10T12:36:08;3.68;69.79
61641;HTU21D;62201;49.966;8.342;2022-12-10T12:38:48;3.64;69.55
61641;HTU21D;62201;49.966;8.342;2022-12-10T12:41:33;3.79;69.74
61641;HTU21D;62201;49.966;8.342;2022-12-10T12:44:09;3.88;69.49
61641;HTU21D;62201;49.966;8.342;2022-12-10T12:46:44;3.93;69.08
61641;HTU21D;62201;49.966;8.342;2022-12-10T12:49:35;3.90;68.86
61641;HTU21D;62201;49.966;8.342;2022-12-10T12:54:56;3.83;69.29
61641;HTU21D;62201;49.966;8.342;2022-12-10T12:57:33;3.77;69.17
61641;HTU21D;62201;49.966;8.342;2022-12-10T13:00:08;3.65;70.23
61641;HTU21D;62201;49.966;8.342;2022-12-10T13:05:04;3.38;72.11
61641;HTU21D;62201;49.966;8.342;2022-12-10T13:07:33;3.40;72.37
61641;HTU21D;62201;49.966;8.342;2022-12-10T13:12:49;3.28;72.84
61641;HTU21D;62201;49.966;8.342;2022-12-10T13:15:38;3.08;73.88
61641;HTU21D;62201;49.966;8.342;2022-12-10T13:20:41;2.94;73.97
61641;HTU21D;62201;49.966;8.342;2022-12-10T13:23:31;2.87;74.17
61641;HTU21D;62201;49.966;8.342;2022-12-10T13:25:58;2.83;74.96
61641;HTU21D;62201;49.966;8.342;2022-12-10T13:28:50;2.75;75.68
61641;HTU21D;62201;49.966;8.342;2022-12-10T13:31:32;2.74;75.72
61641;HTU21D;62201;49.966;8.342;2022-12-10T13:37:16;2.66;75.92
61641;HTU21D;62201;49.966;8.342;2022-12-10T13:39:53;2.65;75.32
61641;HTU21D;62201;49.966;8.342;2022-12-10T13:42:31;2.53;75.57
61641;HTU21D;62201;49.966;8.342;2022-12-10T13:47:52;2.36;76.24
61641;HTU21D;62201;49.966;8.342;2022-12-10T13:50:24;2.27;76.37
61641;HTU21D;62201;49.966;8.342;2022-12-10T14:06:44;1.78;78.47
61641;HTU21D;62201;49.966;8.342;2022-12-10T14:09:15;1.73;78.59
61641;HTU21D;62201;49.966;8.342;2022-12-10T14:11:52;1.69;78.95
61641;HTU21D;62201;49.966;8.342;2022-12-10T14:14:27;1.64;79.42
61641;HTU21D;62201;49.966;8.342;2022-12-10T14:16:54;1.61;79.55
61641;HTU21D;62201;49.966;8.342;2022-12-10T14:19:20;1.58;79.87
61641;HTU21D;62201;49.966;8.342;2022-12-10T14:21:46;1.56;80.12
61641;HTU21D;62201;49.966;8.342;2022-12-10T14:24:26;1.54;80.31
61641;HTU21D;62201;49.966;8.342;2022-12-10T14:26:58;1.55;80.34
61641;HTU21D;62201;49.966;8.342;2022-12-10T14:29:24;1.53;80.30
61641;HTU21D;62201;49.966;8.342;2022-12-10T14:31:50;1.52;80.24
61641;HTU21D;62201;49.966;8.342;2022-12-10T14:34:22;1.52;80.40
61641;HTU21D;62201;49.966;8.342;2022-12-10T14:36:52;1.51;80.41
61641;HTU21D;62201;49.966;8.342;2022-12-10T14:39:26;1.47;80.40
61641;HTU21D;62201;49.966;8.342;2022-12-10T14:41:56;1.45;80.42
61641;HTU21D;62201;49.966;8.342;2022-12-10T14:44:23;1.41;80.51
61641;HTU21D;62201;49.966;8.342;2022-12-10T14:46:50;1.40;80.31
61641;HTU21D;62201;49.966;8.342;2022-12-10T14:49:20;1.36;80.26
61641;HTU21D;62201;49.966;8.342;2022-12-10T14:51:46;1.35;80.35
61641;HTU21D;62201;49.966;8.342;2022-12-10T14:54:32;1.33;80.10
61641;HTU21D;62201;49.966;8.342;2022-12-10T14:57:01;1.28;80.18
61641;HTU21D;62201;49.966;8.342;2022-12-10T14:59:34;1.26;80.59
61641;HTU21D;62201;49.966;8.342;2022-12-10T15:02:01;1.25;80.32
61641;HTU21D;62201;49.966;8.342;2022-12-10T15:04:41;1.24;80.33
61641;HTU21D;62201;49.966;8.342;2022-12-10T15:07:14;1.23;80.33
61641;HTU21D;62201;49.966;8.342;2022-12-10T15:09:40;1.20;80.63
61641;HTU21D;62201;49.966;8.342;2022-12-10T15:12:33;1.18;80.79
61641;HTU21D;62201;49.966;8.342;2022-12-10T15:23:15;1.05;80.97
61641;HTU21D;62201;49.966;8.342;2022-12-10T15:26:00;1.03;80.91
61641;HTU21D;62201;49.966;8.342;2022-12-10T15:28:38;1.02;81.05
61641;HTU21D;62201;49.966;8.342;2022-12-10T15:31:19;0.98;81.50
61641;HTU21D;62201;49.966;8.342;2022-12-10T15:33:59;0.97;81.97
61641;HTU21D;62201;49.966;8.342;2022-12-10T15:39:02;0.90;82.00
61641;HTU21D;62201;49.966;8.342;2022-12-10T15:41:41;0.87;81.85
61641;HTU21D;62201;49.966;8.342;2022-12-10T15:49:33;0.74;82.52
61641;HTU21D;62201;49.966;8.342;2022-12-10T15:51:59;0.69;82.92
61641;HTU21D;62201;49.966;8.342;2022-12-10T15:54:33;0.62;83.13
61641;HTU21D;62201;49.966;8.342;2022-12-10T15:57:04;0.53;83.44
61641;HTU21D;62201;49.966;8.342;2022-12-10T15:59:31;0.47;84.01
61641;HTU21D;62201;49.966;8.342;2022-12-10T16:01:57;0.45;83.90
61641;HTU21D;62201;49.966;8.342;2022-12-10T16:04:23;0.36;84.02
61641;HTU21D;62201;49.966;8.342;2022-12-10T16:06:48;0.30;85.00
61641;HTU21D;62201;49.966;8.342;2022-12-10T16:09:14;0.21;85.09
61641;HTU21D;62201;49.966;8.342;2022-12-10T16:11:39;0.20;85.36
61641;HTU21D;62201;49.966;8.342;2022-12-10T16:14:05;0.19;85.71
61641;HTU21D;62201;49.966;8.342;2022-12-10T16:16:32;0.19;85.60
61641;HTU21D;62201;49.966;8.342;2022-12-10T16:18:57;0.13;85.82
61641;HTU21D;62201;49.966;8.342;2022-12-10T16:21:23;0.13;86.24
61641;HTU21D;62201;49.966;8.342;2022-12-10T16:23:48;0.06;86.44
61641;HTU21D;62201;49.966;8.342;2022-12-10T16:26:16;0.06;86.75
61641;HTU21D;62201;49.966;8.342;2022-12-10T16:28:43;0.03;87.10
61641;HTU21D;62201;49.966;8.342;2022-12-10T16:31:15;-0.01;86.81
61641;HTU21D;62201;49.966;8.342;2022-12-10T16:33:41;-0.06;87.38
61641;HTU21D;62201;49.966;8.342;2022-12-10T16:36:07;-0.13;87.28
61641;HTU21D;62201;49.966;8.342;2022-12-10T16:38:32;-0.16;87.84
61641;HTU21D;62201;49.966;8.342;2022-12-10T16:40:59;-0.19;88.12
61641;HTU21D;62201;49.966;8.342;2022-12-10T16:43:26;-0.23;88.37
61641;HTU21D;62201;49.966;8.342;2022-12-10T16:45:53;-0.31;88.83
61641;HTU21D;62201;49.966;8.342;2022-12-10T16:48:20;-0.30;88.62
61641;HTU21D;62201;49.966;8.342;2022-12-10T16:50:46;-0.30;88.45
61641;HTU21D;62201;49.966;8.342;2022-12-10T16:53:27;-0.37;88.80
61641;HTU21D;62201;49.966;8.342;2022-12-10T16:55:54;-0.45;89.03
61641;HTU21D;62201;49.966;8.342;2022-12-10T16:58:19;-0.50;89.41
61641;HTU21D;62201;49.966;8.342;2022-12-10T17:00:47;-0.55;89.45
61641;HTU21D;62201;49.966;8.342;2022-12-10T17:03:19;-0.64;90.43
61641;HTU21D;62201;49.966;8.342;2022-12-10T17:05:56;-0.66;90.38
61641;HTU21D;62201;49.966;8.342;2022-12-10T17:08:24;-0.67;90.15
61641;HTU21D;62201;49.966;8.342;2022-12-10T17:10:50;-0.70;89.65
61641;HTU21D;62201;49.966;8.342;2022-12-10T17:13:34;-0.76;90.19
61641;HTU21D;62201;49.966;8.342;2022-12-10T17:16:00;-0.76;90.73
61641;HTU21D;62201;49.966;8.342;2022-12-10T17:18:25;-0.80;90.68